Aviation Digital Data Service (ADDS)

Output produced by METARs form (0246 UTC 23 April 2021)
found at http://aviationweather.gov/metar/data/
 
METAR text: KONP 230235Z AUTO 00000KT 5SM HZ SCT016 OVC029 10/07 A3006 RMK AO2
Conditions at: KONP (NEWPORT , OR, US) observed 0235 UTC 23 April 2021
Temperature: 10.0°C (50°F)
Dewpoint: 7.0°C (45°F) [RH = 82%]
Pressure (altimeter): 30.06 inches Hg (1018.0 mb)
Winds: calm
Visibility: 5 miles ( 8 km)
Ceiling: 2900 feet AGL
Clouds: scattered clouds at 1600 feet AGL
overcast cloud deck at 2900 feet AGL
Weather: HZ  (haze)

METAR text: KONP 230215Z AUTO 00000KT 5SM HZ SCT022 OVC028 10/07 A3006 RMK AO2
Conditions at: KONP (NEWPORT , OR, US) observed 0215 UTC 23 April 2021
Temperature: 10.0°C (50°F)
Dewpoint: 7.0°C (45°F) [RH = 82%]
Pressure (altimeter): 30.06 inches Hg (1018.0 mb)
Winds: calm
Visibility: 5 miles ( 8 km)
Ceiling: 2800 feet AGL
Clouds: scattered clouds at 2200 feet AGL
overcast cloud deck at 2800 feet AGL
Weather: HZ  (haze)

METAR text: KONP 230155Z AUTO 00000KT 7SM SCT022 OVC028 10/07 A3006 RMK AO2
Conditions at: KONP (NEWPORT , OR, US) observed 0155 UTC 23 April 2021
Temperature: 10.0°C (50°F)
Dewpoint: 7.0°C (45°F) [RH = 82%]
Pressure (altimeter): 30.06 inches Hg (1018.0 mb)
Winds: calm
Visibility: 7 miles (11 km)
Ceiling: 2800 feet AGL
Clouds: scattered clouds at 2200 feet AGL
overcast cloud deck at 2800 feet AGL
Weather: automated observation with no human augmentation;
there may or may not be significant weather present at this time

METAR text: KONP 230135Z AUTO 29005KT 7SM OVC026 10/06 A3007 RMK AO2
Conditions at: KONP (NEWPORT , OR, US) observed 0135 UTC 23 April 2021
Temperature: 10.0°C (50°F)
Dewpoint: 6.0°C (43°F) [RH = 76%]
Pressure (altimeter): 30.07 inches Hg (1018.4 mb)
Winds: from the WNW (290 degrees) at 6 MPH (5 knots; 2.6 m/s)
Visibility: 7 miles (11 km)
Ceiling: 2600 feet AGL
Clouds: overcast cloud deck at 2600 feet AGL
Weather: automated observation with no human augmentation;
there may or may not be significant weather present at this time

METAR text: KONP 230115Z AUTO 30006KT 7SM OVC024 10/07 A3007 RMK AO2
Conditions at: KONP (NEWPORT , OR, US) observed 0115 UTC 23 April 2021
Temperature: 10.0°C (50°F)
Dewpoint: 7.0°C (45°F) [RH = 82%]
Pressure (altimeter): 30.07 inches Hg (1018.4 mb)
Winds: from the WNW (300 degrees) at 7 MPH (6 knots; 3.1 m/s)
Visibility: 7 miles (11 km)
Ceiling: 2400 feet AGL
Clouds: overcast cloud deck at 2400 feet AGL
Weather: automated observation with no human augmentation;
there may or may not be significant weather present at this time

METAR text: KONP 230055Z AUTO 00000KT 7SM OVC022 11/07 A3007 RMK AO2
Conditions at: KONP (NEWPORT , OR, US) observed 0055 UTC 23 April 2021
Temperature: 11.0°C (52°F)
Dewpoint: 7.0°C (45°F) [RH = 76%]
Pressure (altimeter): 30.07 inches Hg (1018.4 mb)
Winds: calm
Visibility: 7 miles (11 km)
Ceiling: 2200 feet AGL
Clouds: overcast cloud deck at 2200 feet AGL
Weather: automated observation with no human augmentation;
there may or may not be significant weather present at this time

Forecast for: KONP (NEWPORT , OR, US)
Text: KONP 222340Z 2300/2324 23005KT 5SM HZ BKN020 OVC035
Forecast period: 0000 to 1800 UTC 23 April 2021
Forecast type: FROM: standard forecast or significant change
Winds: from the SW (230 degrees) at 6 MPH (5 knots; 2.6 m/s)
Visibility: 5 miles (8 km)
Ceiling: 2000 feet AGL
Clouds: broken clouds at 2000 feet AGL
overcast cloud deck at 3500 feet AGL
Weather: HZ  (haze)
Text: FM231800 VRB03KT P6SM SCT025 BKN035
Forecast period: 1800 to 2200 UTC 23 April 2021
Forecast type: FROM: standard forecast or significant change
Winds: variable direction winds at 3 MPH (3 knots; 1.5 m/s)
Visibility: 6 or more miles (10+ km)
Ceiling: 3500 feet AGL
Clouds: scattered clouds at 2500 feet AGL
broken clouds at 3500 feet AGL
Weather: no significant weather forecast for this period
Text: FM232200 22008KT P6SM BKN035 OVC050
Forecast period: 2200 UTC 23 April 2021 to 0000 UTC 24 April 2021
Forecast type: FROM: standard forecast or significant change
Winds: from the SW (220 degrees) at 9 MPH (8 knots; 4.1 m/s)
Visibility: 6 or more miles (10+ km)
Ceiling: 3500 feet AGL
Clouds: broken clouds at 3500 feet AGL
overcast cloud deck at 5000 feet AGL
Weather: no significant weather forecast for this period